sensor_id;sensor_type;location;lat;lon;timestamp;temperature;humidity
63260;DHT22;49390;51.380;0.098;2023-01-25T00:02:13;3.80;99.90
63260;DHT22;49390;51.380;0.098;2023-01-25T00:04:41;3.80;99.90
63260;DHT22;49390;51.380;0.098;2023-01-25T00:08:21;3.70;99.90
63260;DHT22;49390;51.380;0.098;2023-01-25T00:10:52;3.60;99.90
63260;DHT22;49390;51.380;0.098;2023-01-25T00:13:19;3.60;99.90
63260;DHT22;49390;51.380;0.098;2023-01-25T00:15:48;3.50;99.90
63260;DHT22;49390;51.380;0.098;2023-01-25T00:18:16;3.50;99.90
63260;DHT22;49390;51.380;0.098;2023-01-25T00:20:45;3.40;99.90
63260;DHT22;49390;51.380;0.098;2023-01-25T00:23:19;3.40;99.90
63260;DHT22;49390;51.380;0.098;2023-01-25T00:25:47;3.30;99.90
63260;DHT22;49390;51.380;0.098;2023-01-25T00:28:15;3.30;99.90
63260;DHT22;49390;51.380;0.098;2023-01-25T00:30:44;3.20;99.90
63260;DHT22;49390;51.380;0.098;2023-01-25T00:35:44;3.10;99.90
63260;DHT22;49390;51.380;0.098;2023-01-25T00:38:29;3.10;99.90
63260;DHT22;49390;51.380;0.098;2023-01-25T00:40:57;3.00;99.90
63260;DHT22;49390;51.380;0.098;2023-01-25T00:43:25;3.00;99.90
63260;DHT22;49390;51.380;0.098;2023-01-25T00:46:00;3.00;99.90
63260;DHT22;49390;51.380;0.098;2023-01-25T00:48:29;3.00;99.90
63260;DHT22;49390;51.380;0.098;2023-01-25T00:51:01;3.00;99.90
63260;DHT22;49390;51.380;0.098;2023-01-25T00:53:29;3.00;99.90
63260;DHT22;49390;51.380;0.098;2023-01-25T00:55:57;3.00;99.90
63260;DHT22;49390;51.380;0.098;2023-01-25T00:58:26;3.00;99.90
63260;DHT22;49390;51.380;0.098;2023-01-25T01:00:55;3.10;99.90
63260;DHT22;49390;51.380;0.098;2023-01-25T01:03:26;3.00;99.90
63260;DHT22;49390;51.380;0.098;2023-01-25T01:06:03;3.10;99.90
63260;DHT22;49390;51.380;0.098;2023-01-25T01:08:37;3.10;99.90
63260;DHT22;49390;51.380;0.098;2023-01-25T01:11:09;3.10;99.90
63260;DHT22;49390;51.380;0.098;2023-01-25T01:13:37;3.10;99.90
63260;DHT22;49390;51.380;0.098;2023-01-25T01:16:08;3.20;99.90
63260;DHT22;49390;51.380;0.098;2023-01-25T01:18:43;3.00;99.90
63260;DHT22;49390;51.380;0.098;2023-01-25T01:21:13;3.10;99.90
63260;DHT22;49390;51.380;0.098;2023-01-25T01:23:41;3.10;99.90
63260;DHT22;49390;51.380;0.098;2023-01-25T01:26:17;3.10;99.90
63260;DHT22;49390;51.380;0.098;2023-01-25T01:28:48;3.10;99.90
63260;DHT22;49390;51.380;0.098;2023-01-25T01:31:20;3.00;99.90
63260;DHT22;49390;51.380;0.098;2023-01-25T01:34:02;3.10;99.90
63260;DHT22;49390;51.380;0.098;2023-01-25T01:36:30;3.10;99.90
63260;DHT22;49390;51.380;0.098;2023-01-25T01:39:01;3.10;99.90
63260;DHT22;49390;51.380;0.098;2023-01-25T01:41:32;3.10;99.90
63260;DHT22;49390;51.380;0.098;2023-01-25T01:44:00;3.10;99.90
63260;DHT22;49390;51.380;0.098;2023-01-25T01:49:11;3.10;99.90
63260;DHT22;49390;51.380;0.098;2023-01-25T01:54:22;3.10;99.90
63260;DHT22;49390;51.380;0.098;2023-01-25T01:56:58;3.10;99.90
63260;DHT22;49390;51.380;0.098;2023-01-25T01:59:42;3.10;99.90
63260;DHT22;49390;51.380;0.098;2023-01-25T02:02:13;3.10;99.90
63260;DHT22;49390;51.380;0.098;2023-01-25T02:04:43;3.10;99.90
63260;DHT22;49390;51.380;0.098;2023-01-25T02:07:18;3.10;99.90
63260;DHT22;49390;51.380;0.098;2023-01-25T02:09:49;3.20;99.90
63260;DHT22;49390;51.380;0.098;2023-01-25T02:12:20;3.20;99.90
63260;DHT22;49390;51.380;0.098;2023-01-25T02:14:51;3.20;99.90
63260;DHT22;49390;51.380;0.098;2023-01-25T02:17:26;3.20;99.90
63260;DHT22;49390;51.380;0.098;2023-01-25T02:25:38;3.20;99.90
63260;DHT22;49390;51.380;0.098;2023-01-25T02:28:25;3.20;99.90
63260;DHT22;49390;51.380;0.098;2023-01-25T02:30:54;3.20;99.90
63260;DHT22;49390;51.380;0.098;2023-01-25T02:33:25;3.20;99.90
63260;DHT22;49390;51.380;0.098;2023-01-25T02:36:24;3.30;99.90
63260;DHT22;49390;51.380;0.098;2023-01-25T02:39:08;3.20;99.90
63260;DHT22;49390;51.380;0.098;2023-01-25T02:41:41;3.30;99.90
63260;DHT22;49390;51.380;0.098;2023-01-25T02:44:11;3.30;99.90
63260;DHT22;49390;51.380;0.098;2023-01-25T02:46:42;3.30;99.90
63260;DHT22;49390;51.380;0.098;2023-01-25T02:49:13;3.30;99.90
63260;DHT22;49390;51.380;0.098;2023-01-25T02:51:46;3.30;99.90
63260;DHT22;49390;51.380;0.098;2023-01-25T02:54:17;3.30;99.90
63260;DHT22;49390;51.380;0.098;2023-01-25T02:56:45;3.40;99.90
63260;DHT22;49390;51.380;0.098;2023-01-25T02:59:17;3.30;99.90
63260;DHT22;49390;51.380;0.098;2023-01-25T03:01:51;3.40;99.90
63260;DHT22;49390;51.380;0.098;2023-01-25T03:04:20;3.30;99.90
63260;DHT22;49390;51.380;0.098;2023-01-25T03:06:47;3.30;99.90
63260;DHT22;49390;51.380;0.098;2023-01-25T03:09:18;3.30;99.90
63260;DHT22;49390;51.380;0.098;2023-01-25T03:11:48;3.30;99.90
63260;DHT22;49390;51.380;0.098;2023-01-25T03:14:19;3.30;99.90
63260;DHT22;49390;51.380;0.098;2023-01-25T03:16:47;3.20;99.90
63260;DHT22;49390;51.380;0.098;2023-01-25T03:19:19;3.30;99.90
63260;DHT22;49390;51.380;0.098;2023-01-25T03:21:47;3.30;99.90
63260;DHT22;49390;51.380;0.098;2023-01-25T03:24:15;3.30;99.90
63260;DHT22;49390;51.380;0.098;2023-01-25T03:26:46;3.30;99.90
63260;DHT22;49390;51.380;0.098;2023-01-25T03:29:46;3.40;99.90
63260;DHT22;49390;51.380;0.098;2023-01-25T03:32:19;3.40;99.90
63260;DHT22;49390;51.380;0.098;2023-01-25T03:34:48;3.30;99.90
63260;DHT22;49390;51.380;0.098;2023-01-25T03:37:18;3.40;99.90
63260;DHT22;49390;51.380;0.098;2023-01-25T03:39:48;3.40;99.90
63260;DHT22;49390;51.380;0.098;2023-01-25T03:42:19;3.40;99.90
63260;DHT22;49390;51.380;0.098;2023-01-25T03:44:53;3.40;99.90
63260;DHT22;49390;51.380;0.098;2023-01-25T03:47:21;3.40;99.90
63260;DHT22;49390;51.380;0.098;2023-01-25T03:49:51;3.50;99.90
63260;DHT22;49390;51.380;0.098;2023-01-25T03:52:19;3.40;99.90
63260;DHT22;49390;51.380;0.098;2023-01-25T03:54:48;3.40;99.90
63260;DHT22;49390;51.380;0.098;2023-01-25T03:57:16;3.40;99.90
63260;DHT22;49390;51.380;0.098;2023-01-25T03:59:55;3.40;99.90
63260;DHT22;49390;51.380;0.098;2023-01-25T04:02:24;3.40;99.90
63260;DHT22;49390;51.380;0.098;2023-01-25T04:04:53;3.40;99.90
63260;DHT22;49390;51.380;0.098;2023-01-25T04:07:23;3.40;99.90
63260;DHT22;49390;51.380;0.098;2023-01-25T04:09:51;3.40;99.90
63260;DHT22;49390;51.380;0.098;2023-01-25T04:12:19;3.40;99.90
63260;DHT22;49390;51.380;0.098;2023-01-25T04:14:47;3.40;99.90
63260;DHT22;49390;51.380;0.098;2023-01-25T04:17:20;3.40;99.90
63260;DHT22;49390;51.380;0.098;2023-01-25T04:20:12;3.40;99.90
63260;DHT22;49390;51.380;0.098;2023-01-25T04:22:43;3.30;99.90
63260;DHT22;49390;51.380;0.098;2023-01-25T04:25:12;3.30;99.90
63260;DHT22;49390;51.380;0.098;2023-01-25T04:27:49;3.40;99.90
63260;DHT22;49390;51.380;0.098;2023-01-25T04:30:18;3.40;99.90
63260;DHT22;49390;51.380;0.098;2023-01-25T04:32:50;3.40;99.90
63260;DHT22;49390;51.380;0.098;2023-01-25T04:35:29;3.30;99.90
63260;DHT22;49390;51.380;0.098;2023-01-25T04:37:59;3.40;99.90
63260;DHT22;49390;51.380;0.098;2023-01-25T04:40:42;3.40;99.90
63260;DHT22;49390;51.380;0.098;2023-01-25T04:43:12;3.40;99.90
63260;DHT22;49390;51.380;0.098;2023-01-25T04:45:41;3.30;99.90
63260;DHT22;49390;51.380;0.098;2023-01-25T04:48:16;3.30;99.90
63260;DHT22;49390;51.380;0.098;2023-01-25T04:50:50;3.30;99.90
63260;DHT22;49390;51.380;0.098;2023-01-25T04:53:21;3.30;99.90
63260;DHT22;49390;51.380;0.098;2023-01-25T04:55:50;3.30;99.90
63260;DHT22;49390;51.380;0.098;2023-01-25T04:58:18;3.30;99.90
63260;DHT22;49390;51.380;0.098;2023-01-25T05:00:47;3.20;99.90
63260;DHT22;49390;51.380;0.098;2023-01-25T05:03:16;3.30;99.90
63260;DHT22;49390;51.380;0.098;2023-01-25T05:05:48;3.20;99.90
63260;DHT22;49390;51.380;0.098;2023-01-25T05:08:22;3.20;99.90
63260;DHT22;49390;51.380;0.098;2023-01-25T05:10:53;3.20;99.90
63260;DHT22;49390;51.380;0.098;2023-01-25T05:13:35;3.20;99.90
63260;DHT22;49390;51.380;0.098;2023-01-25T05:16:12;3.20;99.90
63260;DHT22;49390;51.380;0.098;2023-01-25T05:18:40;3.20;99.90
63260;DHT22;49390;51.380;0.098;2023-01-25T05:21:24;3.20;99.90
63260;DHT22;49390;51.380;0.098;2023-01-25T05:24:14;3.20;99.90
63260;DHT22;49390;51.380;0.098;2023-01-25T05:26:48;3.30;99.90
63260;DHT22;49390;51.380;0.098;2023-01-25T05:29:40;3.20;99.90
63260;DHT22;49390;51.380;0.098;2023-01-25T05:32:17;3.20;99.90
63260;DHT22;49390;51.380;0.098;2023-01-25T05:34:46;3.20;99.90
63260;DHT22;49390;51.380;0.098;2023-01-25T05:37:17;3.20;99.90
63260;DHT22;49390;51.380;0.098;2023-01-25T05:39:47;3.20;99.90
63260;DHT22;49390;51.380;0.098;2023-01-25T05:42:17;3.20;99.90
63260;DHT22;49390;51.380;0.098;2023-01-25T05:44:46;3.10;99.90
63260;DHT22;49390;51.380;0.098;2023-01-25T05:47:17;3.10;99.90
63260;DHT22;49390;51.380;0.098;2023-01-25T05:49:45;3.10;99.90
63260;DHT22;49390;51.380;0.098;2023-01-25T05:52:22;3.20;99.90
63260;DHT22;49390;51.380;0.098;2023-01-25T05:54:51;3.10;99.90
63260;DHT22;49390;51.380;0.098;2023-01-25T05:57:19;3.20;99.90
63260;DHT22;49390;51.380;0.098;2023-01-25T05:59:47;3.10;99.90
63260;DHT22;49390;51.380;0.098;2023-01-25T06:02:19;3.10;99.90
63260;DHT22;49390;51.380;0.098;2023-01-25T06:04:48;3.10;99.90
63260;DHT22;49390;51.380;0.098;2023-01-25T06:07:16;3.10;99.90
63260;DHT22;49390;51.380;0.098;2023-01-25T06:09:44;3.10;99.90
63260;DHT22;49390;51.380;0.098;2023-01-25T06:12:15;3.10;99.90
63260;DHT22;49390;51.380;0.098;2023-01-25T06:14:44;3.00;99.90
63260;DHT22;49390;51.380;0.098;2023-01-25T06:17:14;3.10;99.90
63260;DHT22;49390;51.380;0.098;2023-01-25T06:20:05;3.00;99.90
63260;DHT22;49390;51.380;0.098;2023-01-25T06:22:37;3.10;99.90
63260;DHT22;49390;51.380;0.098;2023-01-25T06:25:06;3.10;99.90
63260;DHT22;49390;51.380;0.098;2023-01-25T06:27:35;3.10;99.90
63260;DHT22;49390;51.380;0.098;2023-01-25T06:30:05;3.10;99.90
63260;DHT22;49390;51.380;0.098;2023-01-25T06:32:37;3.10;99.90
63260;DHT22;49390;51.380;0.098;2023-01-25T06:35:06;3.10;99.90
63260;DHT22;49390;51.380;0.098;2023-01-25T06:37:34;3.10;99.90
63260;DHT22;49390;51.380;0.098;2023-01-25T06:40:05;3.10;99.90
63260;DHT22;49390;51.380;0.098;2023-01-25T06:42:34;3.10;99.90
63260;DHT22;49390;51.380;0.098;2023-01-25T06:45:01;3.10;99.90
63260;DHT22;49390;51.380;0.098;2023-01-25T06:47:30;3.10;99.90
63260;DHT22;49390;51.380;0.098;2023-01-25T06:49:58;3.10;99.90
63260;DHT22;49390;51.380;0.098;2023-01-25T06:52:27;3.10;99.90
63260;DHT22;49390;51.380;0.098;2023-01-25T06:54:56;3.10;99.90
63260;DHT22;49390;51.380;0.098;2023-01-25T06:57:24;3.10;99.90
63260;DHT22;49390;51.380;0.098;2023-01-25T06:59:52;3.10;99.90
63260;DHT22;49390;51.380;0.098;2023-01-25T07:02:20;3.10;99.90
63260;DHT22;49390;51.380;0.098;2023-01-25T07:04:49;3.10;99.90
63260;DHT22;49390;51.380;0.098;2023-01-25T07:07:17;3.00;99.90
63260;DHT22;49390;51.380;0.098;2023-01-25T07:09:45;3.10;99.90
63260;DHT22;49390;51.380;0.098;2023-01-25T07:12:14;3.10;99.90
63260;DHT22;49390;51.380;0.098;2023-01-25T07:14:42;3.00;99.90
63260;DHT22;49390;51.380;0.098;2023-01-25T07:17:10;3.00;99.90
63260;DHT22;49390;51.380;0.098;2023-01-25T07:19:38;3.00;99.90
63260;DHT22;49390;51.380;0.098;2023-01-25T07:22:07;3.00;99.90
63260;DHT22;49390;51.380;0.098;2023-01-25T07:24:35;3.00;99.90
63260;DHT22;49390;51.380;0.098;2023-01-25T07:27:04;3.00;99.90
63260;DHT22;49390;51.380;0.098;2023-01-25T07:29:31;3.00;99.90
63260;DHT22;49390;51.380;0.098;2023-01-25T07:32:01;3.00;99.90
63260;DHT22;49390;51.380;0.098;2023-01-25T07:34:30;3.00;99.90
63260;DHT22;49390;51.380;0.098;2023-01-25T07:36:58;2.90;99.90
63260;DHT22;49390;51.380;0.098;2023-01-25T07:39:26;3.10;99.90
63260;DHT22;49390;51.380;0.098;2023-01-25T07:41:56;2.90;99.90
63260;DHT22;49390;51.380;0.098;2023-01-25T07:44:30;2.90;99.90
63260;DHT22;49390;51.380;0.098;2023-01-25T07:47:09;2.90;99.90
63260;DHT22;49390;51.380;0.098;2023-01-25T07:49:37;3.00;99.90
63260;DHT22;49390;51.380;0.098;2023-01-25T07:52:05;3.00;99.90
63260;DHT22;49390;51.380;0.098;2023-01-25T07:54:34;3.00;99.90
63260;DHT22;49390;51.380;0.098;2023-01-25T07:57:02;2.90;99.90
63260;DHT22;49390;51.380;0.098;2023-01-25T07:59:29;3.00;99.90
63260;DHT22;49390;51.380;0.098;2023-01-25T08:01:59;2.90;99.90
63260;DHT22;49390;51.380;0.098;2023-01-25T08:04:27;2.90;99.90
63260;DHT22;49390;51.380;0.098;2023-01-25T08:06:56;2.90;99.90
63260;DHT22;49390;51.380;0.098;2023-01-25T08:09:24;2.90;99.90
63260;DHT22;49390;51.380;0.098;2023-01-25T08:11:52;2.90;99.90
63260;DHT22;49390;51.380;0.098;2023-01-25T08:14:21;2.90;99.90
63260;DHT22;49390;51.380;0.098;2023-01-25T08:16:49;2.90;99.90
63260;DHT22;49390;51.380;0.098;2023-01-25T08:19:18;2.90;99.90
63260;DHT22;49390;51.380;0.098;2023-01-25T08:21:48;2.90;99.90
63260;DHT22;49390;51.380;0.098;2023-01-25T08:24:17;2.80;99.90
63260;DHT22;49390;51.380;0.098;2023-01-25T08:26:47;2.90;99.90
63260;DHT22;49390;51.380;0.098;2023-01-25T08:29:16;2.90;99.90
63260;DHT22;49390;51.380;0.098;2023-01-25T08:31:46;2.90;99.90
63260;DHT22;49390;51.380;0.098;2023-01-25T08:34:15;2.90;99.90
63260;DHT22;49390;51.380;0.098;2023-01-25T08:36:43;2.90;99.90
63260;DHT22;49390;51.380;0.098;2023-01-25T08:39:12;2.90;99.90
63260;DHT22;49390;51.380;0.098;2023-01-25T08:41:41;2.90;99.90
63260;DHT22;49390;51.380;0.098;2023-01-25T08:44:12;2.90;99.90
63260;DHT22;49390;51.380;0.098;2023-01-25T08:46:41;2.90;99.90
63260;DHT22;49390;51.380;0.098;2023-01-25T08:49:09;2.90;99.90
63260;DHT22;49390;51.380;0.098;2023-01-25T08:51:38;2.90;99.90
63260;DHT22;49390;51.380;0.098;2023-01-25T08:54:08;2.90;99.90
63260;DHT22;49390;51.380;0.098;2023-01-25T08:56:46;2.90;99.90
63260;DHT22;49390;51.380;0.098;2023-01-25T08:59:15;3.00;99.90
63260;DHT22;49390;51.380;0.098;2023-01-25T09:01:44;3.00;99.90
63260;DHT22;49390;51.380;0.098;2023-01-25T09:04:12;3.00;99.90
63260;DHT22;49390;51.380;0.098;2023-01-25T09:06:40;3.00;99.90
63260;DHT22;49390;51.380;0.098;2023-01-25T09:09:11;3.00;99.90
63260;DHT22;49390;51.380;0.098;2023-01-25T09:11:39;3.00;99.90
63260;DHT22;49390;51.380;0.098;2023-01-25T09:14:07;3.00;99.90
63260;DHT22;49390;51.380;0.098;2023-01-25T09:16:36;3.00;99.90
63260;DHT22;49390;51.380;0.098;2023-01-25T09:19:08;2.90;99.90
63260;DHT22;49390;51.380;0.098;2023-01-25T09:21:43;3.00;99.90
63260;DHT22;49390;51.380;0.098;2023-01-25T09:24:15;3.10;99.90
63260;DHT22;49390;51.380;0.098;2023-01-25T09:26:44;3.00;99.90
63260;DHT22;49390;51.380;0.098;2023-01-25T09:29:25;3.00;99.90
63260;DHT22;49390;51.380;0.098;2023-01-25T09:31:54;3.00;99.90
63260;DHT22;49390;51.380;0.098;2023-01-25T09:35:03;3.00;99.90
63260;DHT22;49390;51.380;0.098;2023-01-25T09:37:38;3.00;99.90
63260;DHT22;49390;51.380;0.098;2023-01-25T09:40:19;2.90;99.90
63260;DHT22;49390;51.380;0.098;2023-01-25T09:46:39;2.90;99.90
63260;DHT22;49390;51.380;0.098;2023-01-25T09:54:40;2.90;99.90
63260;DHT22;49390;51.380;0.098;2023-01-25T09:57:36;2.90;99.90
63260;DHT22;49390;51.380;0.098;2023-01-25T10:00:19;2.90;99.90
63260;DHT22;49390;51.380;0.098;2023-01-25T10:05:55;3.00;99.90
63260;DHT22;49390;51.380;0.098;2023-01-25T10:08:35;3.00;99.90
63260;DHT22;49390;51.380;0.098;2023-01-25T10:11:40;3.10;99.90
63260;DHT22;49390;51.380;0.098;2023-01-25T10:14:17;3.10;99.90
63260;DHT22;49390;51.380;0.098;2023-01-25T10:22:04;3.30;99.90
63260;DHT22;49390;51.380;0.098;2023-01-25T10:29:45;3.30;99.90
63260;DHT22;49390;51.380;0.098;2023-01-25T10:32:22;3.30;99.90
63260;DHT22;49390;51.380;0.098;2023-01-25T10:34:54;3.30;99.90
63260;DHT22;49390;51.380;0.098;2023-01-25T10:37:27;3.30;99.90
63260;DHT22;49390;51.380;0.098;2023-01-25T10:40:16;3.40;99.90
63260;DHT22;49390;51.380;0.098;2023-01-25T10:42:55;3.40;99.90
63260;DHT22;49390;51.380;0.098;2023-01-25T10:45:27;3.50;99.90
63260;DHT22;49390;51.380;0.098;2023-01-25T10:48:00;3.50;99.90
63260;DHT22;49390;51.380;0.098;2023-01-25T10:50:42;3.50;99.90
63260;DHT22;49390;51.380;0.098;2023-01-25T10:53:35;3.50;99.90
63260;DHT22;49390;51.380;0.098;2023-01-25T10:58:43;3.60;99.90
63260;DHT22;49390;51.380;0.098;2023-01-25T11:01:25;3.60;99.90
63260;DHT22;49390;51.380;0.098;2023-01-25T11:03:54;3.70;99.90
63260;DHT22;49390;51.380;0.098;2023-01-25T11:06:46;3.70;99.90
63260;DHT22;49390;51.380;0.098;2023-01-25T11:12:01;3.90;99.90
63260;DHT22;49390;51.380;0.098;2023-01-25T11:14:31;3.90;99.90
63260;DHT22;49390;51.380;0.098;2023-01-25T11:17:01;4.00;99.90
63260;DHT22;49390;51.380;0.098;2023-01-25T11:24:46;4.30;99.90
63260;DHT22;49390;51.380;0.098;2023-01-25T11:27:23;4.40;99.90
63260;DHT22;49390;51.380;0.098;2023-01-25T11:30:09;4.40;99.90
63260;DHT22;49390;51.380;0.098;2023-01-25T11:32:39;4.50;99.90
63260;DHT22;49390;51.380;0.098;2023-01-25T11:35:20;4.50;99.90
63260;DHT22;49390;51.380;0.098;2023-01-25T11:38:08;4.70;99.90
63260;DHT22;49390;51.380;0.098;2023-01-25T11:40:56;4.70;99.90
63260;DHT22;49390;51.380;0.098;2023-01-25T11:49:36;4.90;99.90
63260;DHT22;49390;51.380;0.098;2023-01-25T12:07:26;5.40;99.90
63260;DHT22;49390;51.380;0.098;2023-01-25T12:10:26;5.40;99.90
63260;DHT22;49390;51.380;0.098;2023-01-25T12:24:50;5.60;99.90
63260;DHT22;49390;51.380;0.098;2023-01-25T12:34:07;5.80;99.90
63260;DHT22;49390;51.380;0.098;2023-01-25T12:36:48;5.40;99.90
63260;DHT22;49390;51.380;0.098;2023-01-25T12:40:19;5.90;99.90
63260;DHT22;49390;51.380;0.098;2023-01-25T12:42:57;6.00;99.90
63260;DHT22;49390;51.380;0.098;2023-01-25T12:45:30;6.00;99.90
63260;DHT22;49390;51.380;0.098;2023-01-25T12:48:15;6.10;99.90
63260;DHT22;49390;51.380;0.098;2023-01-25T12:50:53;6.10;99.90
63260;DHT22;49390;51.380;0.098;2023-01-25T12:53:44;6.10;99.90
63260;DHT22;49390;51.380;0.098;2023-01-25T12:56:38;6.10;99.90
63260;DHT22;49390;51.380;0.098;2023-01-25T12:59:17;6.20;99.90
63260;DHT22;49390;51.380;0.098;2023-01-25T13:01:58;6.20;99.90
63260;DHT22;49390;51.380;0.098;2023-01-25T13:07:26;6.30;99.90
63260;DHT22;49390;51.380;0.098;2023-01-25T13:10:06;6.30;99.90
63260;DHT22;49390;51.380;0.098;2023-01-25T13:13:00;6.20;99.90
63260;DHT22;49390;51.380;0.098;2023-01-25T13:15:44;6.20;99.90
63260;DHT22;49390;51.380;0.098;2023-01-25T13:20:59;6.10;99.90
63260;DHT22;49390;51.380;0.098;2023-01-25T13:26:43;6.00;99.90
63260;DHT22;49390;51.380;0.098;2023-01-25T13:37:28;5.90;99.90
63260;DHT22;49390;51.380;0.098;2023-01-25T13:40:02;5.90;99.90
63260;DHT22;49390;51.380;0.098;2023-01-25T13:42:38;5.90;99.90
63260;DHT22;49390;51.380;0.098;2023-01-25T13:45:18;5.90;99.90
63260;DHT22;49390;51.380;0.098;2023-01-25T13:50:47;5.80;99.90
63260;DHT22;49390;51.380;0.098;2023-01-25T13:53:21;5.80;99.90
63260;DHT22;49390;51.380;0.098;2023-01-25T13:55:52;5.70;99.90
63260;DHT22;49390;51.380;0.098;2023-01-25T13:58:22;5.70;99.90
63260;DHT22;49390;51.380;0.098;2023-01-25T14:01:02;5.70;99.90
63260;DHT22;49390;51.380;0.098;2023-01-25T14:03:45;5.70;99.90
63260;DHT22;49390;51.380;0.098;2023-01-25T14:06:38;5.70;99.90
63260;DHT22;49390;51.380;0.098;2023-01-25T14:09:16;5.70;99.90
63260;DHT22;49390;51.380;0.098;2023-01-25T14:11:56;5.70;99.90
63260;DHT22;49390;51.380;0.098;2023-01-25T14:14:35;5.70;99.90
63260;DHT22;49390;51.380;0.098;2023-01-25T14:17:20;5.60;99.90
63260;DHT22;49390;51.380;0.098;2023-01-25T14:19:53;5.70;99.90
63260;DHT22;49390;51.380;0.098;2023-01-25T14:22:27;5.60;99.90
63260;DHT22;49390;51.380;0.098;2023-01-25T14:27:53;5.60;99.90
63260;DHT22;49390;51.380;0.098;2023-01-25T14:32:54;5.60;99.90
63260;DHT22;49390;51.380;0.098;2023-01-25T14:35:39;5.60;99.90
63260;DHT22;49390;51.380;0.098;2023-01-25T14:40:57;5.60;99.90
63260;DHT22;49390;51.380;0.098;2023-01-25T14:43:26;5.60;99.90
63260;DHT22;49390;51.380;0.098;2023-01-25T14:45:55;5.60;99.90
63260;DHT22;49390;51.380;0.098;2023-01-25T14:48:39;5.60;99.90
63260;DHT22;49390;51.380;0.098;2023-01-25T14:51:23;5.50;99.90
63260;DHT22;49390;51.380;0.098;2023-01-25T14:54:17;5.50;99.90
63260;DHT22;49390;51.380;0.098;2023-01-25T14:57:05;5.50;99.90
63260;DHT22;49390;51.380;0.098;2023-01-25T14:59:36;5.60;99.90
63260;DHT22;49390;51.380;0.098;2023-01-25T15:02:22;5.50;99.90
63260;DHT22;49390;51.380;0.098;2023-01-25T15:05:03;5.50;99.90
63260;DHT22;49390;51.380;0.098;2023-01-25T15:07:48;5.60;99.90
63260;DHT22;49390;51.380;0.098;2023-01-25T15:10:30;5.60;99.90
63260;DHT22;49390;51.380;0.098;2023-01-25T15:16:08;5.70;99.90
63260;DHT22;49390;51.380;0.098;2023-01-25T15:18:46;5.70;99.90
63260;DHT22;49390;51.380;0.098;2023-01-25T15:21:23;5.70;99.90
63260;DHT22;49390;51.380;0.098;2023-01-25T15:23:54;5.70;99.90
63260;DHT22;49390;51.380;0.098;2023-01-25T15:26:24;5.80;99.90
63260;DHT22;49390;51.380;0.098;2023-01-25T15:28:57;5.80;99.90
63260;DHT22;49390;51.380;0.098;2023-01-25T15:31:35;5.80;99.90
63260;DHT22;49390;51.380;0.098;2023-01-25T15:34:04;5.90;99.90
63260;DHT22;49390;51.380;0.098;2023-01-25T15:36:34;5.90;99.90
63260;DHT22;49390;51.380;0.098;2023-01-25T15:39:04;5.90;99.90
63260;DHT22;49390;51.380;0.098;2023-01-25T15:41:32;5.90;99.90
63260;DHT22;49390;51.380;0.098;2023-01-25T15:44:01;5.90;99.90
63260;DHT22;49390;51.380;0.098;2023-01-25T15:46:30;5.90;99.90
63260;DHT22;49390;51.380;0.098;2023-01-25T15:49:12;6.00;99.90
63260;DHT22;49390;51.380;0.098;2023-01-25T15:51:44;6.00;99.90
63260;DHT22;49390;51.380;0.098;2023-01-25T15:54:15;6.00;99.90
63260;DHT22;49390;51.380;0.098;2023-01-25T15:56:47;6.00;99.90
63260;DHT22;49390;51.380;0.098;2023-01-25T15:59:46;6.00;99.90
63260;DHT22;49390;51.380;0.098;2023-01-25T16:02:16;6.00;99.90
63260;DHT22;49390;51.380;0.098;2023-01-25T16:04:52;6.00;99.90
63260;DHT22;49390;51.380;0.098;2023-01-25T16:10:38;6.00;99.90
63260;DHT22;49390;51.380;0.098;2023-01-25T16:27:01;6.00;99.90
63260;DHT22;49390;51.380;0.098;2023-01-25T16:29:58;6.10;99.90
63260;DHT22;49390;51.380;0.098;2023-01-25T16:32:27;6.10;99.90
63260;DHT22;49390;51.380;0.098;2023-01-25T16:34:55;6.10;99.90
63260;DHT22;49390;51.380;0.098;2023-01-25T16:37:23;6.00;99.90
63260;DHT22;49390;51.380;0.098;2023-01-25T16:39:52;6.00;99.90
63260;DHT22;49390;51.380;0.098;2023-01-25T16:42:20;5.90;99.90
63260;DHT22;49390;51.380;0.098;2023-01-25T16:44:50;5.90;99.90
63260;DHT22;49390;51.380;0.098;2023-01-25T16:47:18;5.80;99.90
63260;DHT22;49390;51.380;0.098;2023-01-25T16:49:47;5.80;99.90
63260;DHT22;49390;51.380;0.098;2023-01-25T16:52:15;5.80;99.90
63260;DHT22;49390;51.380;0.098;2023-01-25T16:54:45;5.70;99.90
63260;DHT22;49390;51.380;0.098;2023-01-25T16:57:14;5.70;99.90
63260;DHT22;49390;51.380;0.098;2023-01-25T16:59:51;5.70;99.90
63260;DHT22;49390;51.380;0.098;2023-01-25T17:02:24;5.70;99.90
63260;DHT22;49390;51.380;0.098;2023-01-25T17:04:53;5.70;99.90
63260;DHT22;49390;51.380;0.098;2023-01-25T17:07:21;5.70;99.90
63260;DHT22;49390;51.380;0.098;2023-01-25T17:09:49;5.60;99.90
63260;DHT22;49390;51.380;0.098;2023-01-25T17:12:17;5.60;99.90
63260;DHT22;49390;51.380;0.098;2023-01-25T17:14:46;5.60;99.90
63260;DHT22;49390;51.380;0.098;2023-01-25T17:17:14;5.60;99.90
63260;DHT22;49390;51.380;0.098;2023-01-25T17:19:42;5.60;99.90
63260;DHT22;49390;51.380;0.098;2023-01-25T17:22:11;5.60;99.90
63260;DHT22;49390;51.380;0.098;2023-01-25T17:24:42;5.60;99.90
63260;DHT22;49390;51.380;0.098;2023-01-25T17:27:11;5.60;99.90
63260;DHT22;49390;51.380;0.098;2023-01-25T17:29:39;5.60;99.90
63260;DHT22;49390;51.380;0.098;2023-01-25T17:32:08;5.60;99.90
63260;DHT22;49390;51.380;0.098;2023-01-25T17:34:36;5.60;99.90
63260;DHT22;49390;51.380;0.098;2023-01-25T17:37:04;5.60;99.90
63260;DHT22;49390;51.380;0.098;2023-01-25T17:39:33;5.60;99.90
63260;DHT22;49390;51.380;0.098;2023-01-25T17:42:01;5.60;99.90
63260;DHT22;49390;51.380;0.098;2023-01-25T17:44:30;5.60;99.90
63260;DHT22;49390;51.380;0.098;2023-01-25T17:47:00;5.60;99.90
63260;DHT22;49390;51.380;0.098;2023-01-25T17:49:30;5.60;99.90
63260;DHT22;49390;51.380;0.098;2023-01-25T17:51:58;5.60;99.90
63260;DHT22;49390;51.380;0.098;2023-01-25T17:54:26;5.60;99.90
63260;DHT22;49390;51.380;0.098;2023-01-25T17:56:55;5.50;99.90
63260;DHT22;49390;51.380;0.098;2023-01-25T17:59:23;5.50;99.90
63260;DHT22;49390;51.380;0.098;2023-01-25T18:01:54;5.60;99.90
63260;DHT22;49390;51.380;0.098;2023-01-25T18:04:28;5.50;99.90
63260;DHT22;49390;51.380;0.098;2023-01-25T18:07:25;5.50;99.90
63260;DHT22;49390;51.380;0.098;2023-01-25T18:09:56;5.50;99.90
63260;DHT22;49390;51.380;0.098;2023-01-25T18:12:25;5.50;99.90
63260;DHT22;49390;51.380;0.098;2023-01-25T18:14:59;5.50;99.90
63260;DHT22;49390;51.380;0.098;2023-01-25T18:17:36;5.40;99.90
63260;DHT22;49390;51.380;0.098;2023-01-25T18:20:15;5.40;99.90
63260;DHT22;49390;51.380;0.098;2023-01-25T18:23:03;5.40;99.90
63260;DHT22;49390;51.380;0.098;2023-01-25T18:25:36;5.40;99.90
63260;DHT22;49390;51.380;0.098;2023-01-25T18:28:12;5.50;99.90
63260;DHT22;49390;51.380;0.098;2023-01-25T18:30:50;5.50;99.90
63260;DHT22;49390;51.380;0.098;2023-01-25T18:33:25;5.40;99.90
63260;DHT22;49390;51.380;0.098;2023-01-25T18:36:01;5.40;99.90
63260;DHT22;49390;51.380;0.098;2023-01-25T18:38:30;5.40;99.90
63260;DHT22;49390;51.380;0.098;2023-01-25T18:40:59;5.50;99.90